Time;durP1;ratioP1;P1;durP2;ratioP2;P2;SDS_P1;SDS_P2;PMS_P1;PMS_P2;Temp;Humidity;BMP_temperature;BMP_pressure;BME280_temperature;BME280_humidity;BME280_pressure;Samples;Min_cycle;Max_cycle;Signal;HPM_P1;HPM_P2
2023/10/26 00:01:24;;;;;;;3.20;0.70;;;13.60;1.00;;;;;;4995771;28;20418;-79
2023/10/26 00:03:49;;;;;;;1.00;0.60;;;13.60;1.00;;;;;;4977769;28;20409;-78
2023/10/26 00:06:15;;;;;;;2.67;0.73;;;13.50;1.00;;;;;;4995102;28;20445;-79
2023/10/26 00:08:40;;;;;;;1.60;0.90;;;13.50;1.00;;;;;;4995150;28;20903;-79
2023/10/26 00:11:06;;;;;;;2.60;1.00;;;13.60;1.00;;;;;;4976864;28;20410;-79
2023/10/26 00:13:31;;;;;;;1.20;0.90;;;13.50;1.00;;;;;;4994326;28;20469;-78
2023/10/26 00:15:57;;;;;;;1.85;0.82;;;13.60;1.00;;;;;;4994718;28;20401;-79
2023/10/26 00:18:23;;;;;;;1.87;0.70;;;13.60;1.00;;;;;;4994535;28;20778;-79
2023/10/26 00:20:49;;;;;;;0.90;0.70;;;13.60;1.00;;;;;;4994648;28;20762;-80
2023/10/26 00:23:14;;;;;;;1.00;0.60;;;13.60;1.00;;;;;;4994509;28;20390;-78
2023/10/26 00:25:40;;;;;;;1.53;0.70;;;13.70;1.00;;;;;;4994169;28;20390;-78
2023/10/26 00:28:06;;;;;;;1.30;0.90;;;13.60;1.00;;;;;;4976546;28;20414;-79
2023/10/26 00:30:32;;;;;;;3.03;0.90;;;13.70;1.00;;;;;;4993723;28;20394;-78
2023/10/26 00:32:58;;;;;;;1.42;0.63;;;13.70;1.00;;;;;;4994272;28;20387;-77
2023/10/26 00:35:24;;;;;;;2.15;0.70;;;13.70;1.00;;;;;;4994171;28;20759;-79
2023/10/26 00:37:50;;;;;;;2.13;0.85;;;13.70;1.00;;;;;;4994721;28;20448;-79
2023/10/26 00:40:16;;;;;;;1.30;0.60;;;13.70;1.00;;;;;;4993960;28;20395;-78
2023/10/26 00:42:41;;;;;;;2.08;0.60;;;13.70;1.00;;;;;;4993114;28;20959;-78
2023/10/26 00:45:07;;;;;;;0.90;0.60;;;13.80;1.00;;;;;;4993109;28;20462;-79
2023/10/26 00:47:33;;;;;;;2.50;0.70;;;13.70;1.00;;;;;;4994754;28;20390;-78
2023/10/26 00:49:59;;;;;;;1.10;0.50;;;13.80;1.00;;;;;;4993449;28;20400;-79
2023/10/26 00:52:27;;;;;;;1.35;0.60;;;13.90;1.00;;;;;;4993442;28;20496;-79
2023/10/26 00:54:53;;;;;;;1.77;0.80;;;13.80;1.00;;;;;;4993661;28;20414;-78
2023/10/26 00:57:23;;;;;;;2.58;0.60;;;13.80;1.00;;;;;;4979248;28;20383;-75
2023/10/26 00:59:50;;;;;;;1.60;0.50;;;13.90;1.00;;;;;;4981121;28;20418;-78
2023/10/26 01:02:17;;;;;;;1.50;0.50;;;13.80;1.00;;;;;;4992849;28;21097;-78
2023/10/26 01:04:43;;;;;;;1.10;0.40;;;13.80;1.00;;;;;;4994318;28;20758;-79
2023/10/26 01:07:09;;;;;;;2.80;0.60;;;13.80;1.00;;;;;;4993719;28;20394;-79
2023/10/26 01:09:34;;;;;;;1.60;0.60;;;13.80;1.00;;;;;;4976999;28;20934;-78
2023/10/26 01:12:01;;;;;;;0.60;0.50;;;13.80;1.00;;;;;;4994503;28;20821;-79
2023/10/26 01:14:27;;;;;;;1.63;0.40;;;13.80;1.00;;;;;;4994924;28;20394;-78
2023/10/26 01:16:54;;;;;;;0.80;0.50;;;13.80;1.00;;;;;;4995151;28;20391;-78
2023/10/26 01:19:19;;;;;;;1.60;0.60;;;13.80;1.00;;;;;;4977094;28;20403;-78
2023/10/26 01:21:52;;;;;;;2.40;0.40;;;13.80;1.00;;;;;;4994912;28;20426;-78
2023/10/26 01:24:18;;;;;;;0.50;0.40;;;13.90;1.00;;;;;;4979140;28;20395;-78
2023/10/26 01:26:44;;;;;;;2.08;0.60;;;13.80;1.00;;;;;;4996714;28;20418;-77
2023/10/26 01:29:11;;;;;;;1.00;0.50;;;13.80;1.00;;;;;;4997754;28;20755;-77
2023/10/26 01:31:36;;;;;;;1.00;0.50;;;13.80;1.00;;;;;;4979681;28;20440;-78
2023/10/26 01:34:02;;;;;;;2.10;0.70;;;13.70;1.00;;;;;;4997201;28;20930;-77
2023/10/26 01:36:27;;;;;;;1.60;0.40;;;13.80;1.00;;;;;;4998135;28;20391;-79
2023/10/26 01:38:55;;;;;;;1.40;0.50;;;13.70;1.00;;;;;;4999985;28;20394;-76
2023/10/26 01:41:20;;;;;;;0.50;0.40;;;13.70;1.00;;;;;;5001373;28;20413;-77
2023/10/26 01:43:46;;;;;;;1.00;0.30;;;13.70;1.00;;;;;;5004619;28;20402;-77
2023/10/26 01:46:12;;;;;;;1.00;0.50;;;13.70;1.00;;;;;;5005444;28;20395;-78
2023/10/26 01:48:38;;;;;;;1.10;0.40;;;13.70;1.00;;;;;;5003547;28;20889;-79
2023/10/26 01:51:04;;;;;;;0.80;0.40;;;13.70;1.00;;;;;;4983031;28;20942;-77
2023/10/26 01:53:29;;;;;;;1.70;0.50;;;13.60;1.00;;;;;;4995282;28;20503;-78
2023/10/26 01:55:55;;;;;;;1.10;0.50;;;13.80;1.00;;;;;;4993808;28;20414;-77
2023/10/26 01:58:20;;;;;;;1.20;0.60;;;13.80;1.00;;;;;;4993722;28;20389;-78
2023/10/26 02:00:46;;;;;;;1.33;0.50;;;13.80;1.00;;;;;;4995225;28;20477;-79
2023/10/26 02:03:11;;;;;;;1.00;0.40;;;13.80;1.00;;;;;;4995056;28;20394;-79
2023/10/26 02:05:37;;;;;;;1.40;0.40;;;13.80;1.00;;;;;;4975374;28;20759;-77
2023/10/26 02:08:03;;;;;;;1.02;0.50;;;13.80;1.00;;;;;;4997695;28;20464;-78
2023/10/26 02:10:31;;;;;;;0.75;0.40;;;13.70;1.00;;;;;;4998192;28;20467;-78
2023/10/26 02:12:57;;;;;;;0.77;0.40;;;13.50;1.00;;;;;;4992580;28;20791;-78
2023/10/26 02:15:22;;;;;;;2.17;0.60;;;13.40;1.00;;;;;;4975001;28;20405;-77
2023/10/26 02:17:48;;;;;;;1.50;0.50;;;12.90;1.00;;;;;;4992268;28;20493;-79
2023/10/26 02:20:14;;;;;;;1.90;0.55;;;13.10;1.00;;;;;;4993919;28;20386;-78
2023/10/26 02:22:39;;;;;;;0.43;0.30;;;13.00;1.00;;;;;;4993626;28;20406;-78
2023/10/26 02:25:05;;;;;;;1.50;0.70;;;12.90;1.00;;;;;;4975638;28;20534;-78
2023/10/26 02:27:34;;;;;;;2.30;0.80;;;12.80;1.00;;;;;;4992917;28;20428;-79
2023/10/26 02:29:59;;;;;;;1.75;0.45;;;12.80;1.00;;;;;;4993412;28;20386;-78
2023/10/26 02:32:25;;;;;;;1.90;0.50;;;12.60;1.00;;;;;;4995573;28;20409;-78
2023/10/26 02:34:51;;;;;;;1.50;0.60;;;12.50;1.00;;;;;;4996843;28;20445;-78
2023/10/26 02:37:19;;;;;;;3.30;0.80;;;12.40;1.00;;;;;;4999733;28;20390;-79
2023/10/26 02:39:44;;;;;;;1.10;0.60;;;12.20;1.00;;;;;;4999569;28;20428;-80
2023/10/26 02:42:10;;;;;;;1.65;0.70;;;12.30;1.00;;;;;;4999553;28;20407;-79
2023/10/26 02:44:36;;;;;;;2.63;0.90;;;12.20;1.00;;;;;;4997907;28;20490;-78
2023/10/26 02:47:02;;;;;;;2.40;0.70;;;12.20;1.00;;;;;;4997014;28;20445;-80
2023/10/26 02:49:27;;;;;;;1.00;0.50;;;12.20;1.00;;;;;;4997667;28;20604;-80
2023/10/26 02:51:53;;;;;;;1.20;0.50;;;12.30;1.00;;;;;;4979845;28;20520;-79
2023/10/26 02:54:19;;;;;;;1.80;0.70;;;12.30;1.00;;;;;;4979926;28;20413;-79
2023/10/26 02:56:45;;;;;;;0.88;0.50;;;12.20;1.00;;;;;;4980085;28;20467;-80
2023/10/26 02:59:10;;;;;;;1.87;0.70;;;12.30;1.00;;;;;;4997571;28;20459;-80
2023/10/26 03:01:36;;;;;;;0.70;0.50;;;12.20;1.00;;;;;;4996392;28;20821;-79
2023/10/26 03:04:02;;;;;;;1.73;0.80;;;12.20;1.00;;;;;;4979373;28;20410;-79
2023/10/26 03:06:27;;;;;;;1.20;0.63;;;12.10;1.00;;;;;;4997919;28;20430;-80
2023/10/26 03:08:53;;;;;;;1.30;0.70;;;12.20;1.00;;;;;;4997508;28;20770;-79
2023/10/26 03:11:18;;;;;;;1.60;0.70;;;12.10;1.00;;;;;;4980119;28;20775;-80
2023/10/26 03:13:44;;;;;;;1.20;0.60;;;12.00;1.00;;;;;;4996208;28;20393;-79
2023/10/26 03:16:11;;;;;;;1.05;0.50;;;12.00;1.00;;;;;;4998501;28;20405;-79
2023/10/26 03:18:37;;;;;;;1.30;0.57;;;12.20;1.00;;;;;;5002665;28;20408;-79
2023/10/26 03:21:03;;;;;;;0.90;0.50;;;12.20;1.00;;;;;;4998608;28;20914;-78
2023/10/26 03:23:29;;;;;;;0.50;0.40;;;12.20;1.00;;;;;;4997867;28;20457;-80
2023/10/26 03:25:54;;;;;;;0.60;0.38;;;12.20;1.00;;;;;;4997184;28;20390;-78
2023/10/26 03:28:20;;;;;;;0.40;0.30;;;12.10;1.00;;;;;;4982118;28;20390;-80
2023/10/26 03:30:45;;;;;;;2.80;0.60;;;12.10;1.00;;;;;;4998444;28;20391;-81
2023/10/26 03:33:11;;;;;;;0.70;0.30;;;11.90;1.00;;;;;;4997110;28;20809;-80
2023/10/26 03:35:36;;;;;;;1.40;0.30;;;12.00;1.00;;;;;;4999035;28;20417;-79
2023/10/26 03:38:02;;;;;;;0.50;0.40;;;12.10;1.00;;;;;;4996644;28;20993;-80
2023/10/26 03:40:28;;;;;;;0.70;0.50;;;12.10;1.00;;;;;;4997141;28;20390;-80
2023/10/26 03:42:53;;;;;;;1.20;0.40;;;12.00;1.00;;;;;;4997328;28;20415;-79
2023/10/26 03:45:19;;;;;;;1.10;0.30;;;12.10;1.00;;;;;;4998392;28;20477;-79
2023/10/26 03:47:44;;;;;;;1.00;0.40;;;12.00;1.00;;;;;;4996911;28;20454;-80
2023/10/26 03:50:10;;;;;;;0.60;0.30;;;12.10;1.00;;;;;;4995693;28;20980;-81
2023/10/26 03:52:36;;;;;;;0.50;0.30;;;12.00;1.00;;;;;;4996343;28;20383;-80
2023/10/26 03:55:02;;;;;;;0.50;0.30;;;12.20;1.00;;;;;;4995880;28;20385;-79
2023/10/26 03:57:27;;;;;;;0.50;0.30;;;12.20;1.00;;;;;;4996100;28;20394;-80
2023/10/26 03:59:53;;;;;;;2.20;0.50;;;12.20;1.00;;;;;;4996491;28;20461;-81
2023/10/26 04:02:18;;;;;;;0.52;0.40;;;12.00;1.00;;;;;;4997112;28;20409;-80
2023/10/26 04:04:44;;;;;;;0.60;0.30;;;12.00;1.00;;;;;;4995278;28;20917;-80
2023/10/26 04:07:09;;;;;;;0.50;0.30;;;11.90;1.00;;;;;;5016900;23;20409;-81
2023/10/26 04:09:35;;;;;;;0.55;0.30;;;11.90;1.00;;;;;;4995942;28;20398;-81
2023/10/26 04:12:01;;;;;;;0.40;0.30;;;11.90;1.00;;;;;;4996421;28;20387;-81
2023/10/26 04:14:26;;;;;;;1.20;0.30;;;11.90;7.70;;;;;;4998526;28;20413;-81
2023/10/26 04:16:52;;;;;;;0.40;0.30;;;11.90;12.80;;;;;;4981633;28;20391;-82
2023/10/26 04:19:18;;;;;;;0.40;0.30;;;11.90;18.80;;;;;;4998419;28;20418;-80
2023/10/26 04:21:43;;;;;;;0.80;0.30;;;11.80;5.90;;;;;;4983017;28;20423;-81
2023/10/26 04:24:09;;;;;;;0.50;0.40;;;11.90;11.90;;;;;;5003505;28;20438;-81
2023/10/26 04:26:35;;;;;;;1.10;0.40;;;11.90;20.70;;;;;;4986830;28;20484;-82
2023/10/26 04:29:00;;;;;;;0.40;0.30;;;11.80;22.10;;;;;;4987658;28;20448;-82
2023/10/26 04:31:26;;;;;;;0.90;0.50;;;11.80;23.40;;;;;;5003580;28;20390;-81
2023/10/26 04:33:52;;;;;;;1.80;0.40;;;11.80;37.10;;;;;;4985715;28;20407;-81
2023/10/26 04:36:20;;;;;;;0.60;0.50;;;11.80;42.90;;;;;;4986153;28;20454;-81
2023/10/26 04:38:46;;;;;;;0.75;0.50;;;11.80;42.60;;;;;;5004037;28;20404;-81
2023/10/26 04:41:11;;;;;;;1.10;0.50;;;11.70;37.60;;;;;;5004342;28;20434;-81
2023/10/26 04:43:37;;;;;;;1.30;0.70;;;11.70;45.40;;;;;;4987361;28;20425;-82
2023/10/26 04:46:02;;;;;;;2.20;0.97;;;11.70;46.30;;;;;;4986107;28;20445;-82
2023/10/26 04:48:29;;;;;;;1.70;1.00;;;11.80;53.30;;;;;;5002917;28;20411;-82
2023/10/26 04:50:55;;;;;;;1.00;0.70;;;11.80;52.00;;;;;;4984711;28;20394;-82
2023/10/26 04:53:21;;;;;;;1.52;1.10;;;11.70;48.80;;;;;;4993977;28;20395;-82
2023/10/26 04:55:46;;;;;;;2.53;1.20;;;11.80;54.10;;;;;;4995395;28;20394;-81
2023/10/26 04:58:12;;;;;;;1.98;1.30;;;11.70;48.00;;;;;;5010467;28;20398;-82
2023/10/26 05:00:37;;;;;;;1.30;1.20;;;11.80;52.60;;;;;;4995645;28;20406;-80
2023/10/26 05:03:03;;;;;;;2.80;1.50;;;11.70;49.80;;;;;;4996489;28;20417;-81
2023/10/26 05:05:28;;;;;;;1.33;1.23;;;11.70;55.30;;;;;;4995668;28;20395;-81
2023/10/26 05:07:54;;;;;;;1.80;1.40;;;11.70;54.50;;;;;;4996618;28;20490;-80
2023/10/26 05:10:20;;;;;;;1.85;1.73;;;11.70;53.80;;;;;;4994978;28;20397;-81
2023/10/26 05:12:46;;;;;;;1.63;1.52;;;11.70;55.50;;;;;;5020502;28;20397;-82
2023/10/26 05:15:11;;;;;;;2.22;1.80;;;11.70;54.00;;;;;;5009480;28;20398;-81
2023/10/26 05:17:38;;;;;;;2.20;1.67;;;11.80;57.60;;;;;;5006209;28;20405;-82
2023/10/26 05:20:04;;;;;;;1.83;1.48;;;11.70;57.70;;;;;;4989946;28;20457;-82
2023/10/26 05:22:32;;;;;;;2.38;1.80;;;11.70;54.80;;;;;;5007713;28;20434;-82
2023/10/26 05:25:00;;;;;;;1.80;1.70;;;11.70;52.70;;;;;;5006187;28;20386;-82
2023/10/26 05:27:26;;;;;;;1.40;1.30;;;11.70;52.90;;;;;;5005357;28;20409;-82
2023/10/26 05:29:52;;;;;;;1.83;1.55;;;11.70;54.70;;;;;;5005037;28;20391;-82
2023/10/26 05:32:18;;;;;;;2.45;1.60;;;11.80;51.70;;;;;;5004534;28;20429;-82
2023/10/26 05:34:43;;;;;;;3.30;1.60;;;11.70;48.80;;;;;;4985977;28;20390;-83
2023/10/26 05:37:09;;;;;;;2.67;1.60;;;11.70;50.60;;;;;;4988051;28;20929;-81
2023/10/26 05:39:34;;;;;;;1.30;1.20;;;11.70;43.50;;;;;;4987984;28;20466;-83
2023/10/26 05:42:03;;;;;;;1.67;1.58;;;11.70;42.90;;;;;;5006353;28;20519;-81
2023/10/26 05:44:30;;;;;;;1.60;1.50;;;11.70;49.10;;;;;;5013446;28;20393;-81
2023/10/26 05:46:56;;;;;;;1.70;1.33;;;11.70;49.10;;;;;;5013959;28;20882;-81
2023/10/26 05:49:21;;;;;;;2.10;1.50;;;11.70;56.00;;;;;;5014708;28;20406;-81
2023/10/26 05:51:47;;;;;;;1.50;1.40;;;11.70;51.20;;;;;;5009506;28;20460;-82
2023/10/26 05:54:12;;;;;;;2.53;1.30;;;11.70;51.70;;;;;;4987992;28;20402;-83
2023/10/26 05:56:38;;;;;;;2.07;1.87;;;11.70;52.20;;;;;;4988690;28;20429;-83
2023/10/26 05:59:04;;;;;;;1.50;1.40;;;11.80;49.60;;;;;;5006422;28;20819;-82
2023/10/26 06:01:30;;;;;;;2.10;1.50;;;11.70;41.10;;;;;;5005053;28;20410;-82
2023/10/26 06:03:56;;;;;;;1.60;1.50;;;11.70;47.10;;;;;;4988003;28;20818;-83
2023/10/26 06:06:21;;;;;;;1.60;1.50;;;11.60;42.00;;;;;;5004708;28;20390;-82
2023/10/26 06:08:47;;;;;;;1.70;1.60;;;11.60;47.00;;;;;;4988436;28;20437;-83
2023/10/26 06:11:12;;;;;;;2.10;1.70;;;11.60;48.80;;;;;;5008369;28;20428;-83
2023/10/26 06:13:38;;;;;;;1.97;1.70;;;11.60;54.90;;;;;;4990332;28;20430;-83
2023/10/26 06:16:04;;;;;;;2.10;1.80;;;11.70;57.20;;;;;;4990171;28;20437;-82
2023/10/26 06:18:29;;;;;;;2.30;2.03;;;11.70;55.30;;;;;;5007309;28;20396;-82
2023/10/26 06:20:57;;;;;;;2.53;1.87;;;11.70;58.20;;;;;;4990568;28;20394;-83
2023/10/26 06:23:22;;;;;;;2.47;2.28;;;11.60;53.80;;;;;;5012720;28;20382;-81
2023/10/26 06:25:48;;;;;;;1.90;1.80;;;11.70;59.00;;;;;;4992490;28;20475;-82
2023/10/26 06:28:13;;;;;;;2.33;2.10;;;11.70;56.20;;;;;;4990785;28;20394;-82
2023/10/26 06:30:39;;;;;;;4.00;2.20;;;11.70;55.70;;;;;;5007697;28;20387;-84
2023/10/26 06:33:04;;;;;;;2.80;1.97;;;11.70;54.30;;;;;;4990005;28;20399;-84
2023/10/26 06:35:30;;;;;;;1.70;1.60;;;11.70;54.80;;;;;;4989070;28;20390;-82
2023/10/26 06:37:55;;;;;;;4.22;2.45;;;11.80;58.60;;;;;;4988203;28;20399;-84
2023/10/26 06:40:21;;;;;;;2.20;2.00;;;11.70;53.10;;;;;;5006754;28;20394;-84
2023/10/26 06:42:46;;;;;;;2.90;2.67;;;11.70;51.80;;;;;;5005281;28;20422;-83
2023/10/26 06:45:12;;;;;;;2.90;2.70;;;11.70;53.30;;;;;;5005653;28;20395;-83
2023/10/26 06:47:38;;;;;;;2.55;2.35;;;11.70;54.80;;;;;;4988733;28;20454;-83
2023/10/26 06:50:06;;;;;;;2.60;2.40;;;11.70;55.10;;;;;;5006069;28;20764;-83
2023/10/26 06:52:31;;;;;;;3.65;2.60;;;11.70;55.50;;;;;;5011623;28;20780;-84
2023/10/26 06:54:58;;;;;;;2.90;2.70;;;11.90;52.10;;;;;;4989683;28;20410;-83
2023/10/26 06:57:23;;;;;;;2.70;2.50;;;11.70;57.10;;;;;;5007469;28;20418;-83
2023/10/26 06:59:49;;;;;;;2.37;2.17;;;11.70;51.40;;;;;;5006607;28;20411;-84
2023/10/26 07:02:15;;;;;;;2.53;2.33;;;11.70;44.60;;;;;;4988601;28;20406;-84
2023/10/26 07:04:40;;;;;;;3.20;2.40;;;11.70;50.90;;;;;;4984429;28;20906;-83
2023/10/26 07:07:06;;;;;;;3.05;2.75;;;11.80;50.60;;;;;;4998818;28;20395;-84
2023/10/26 07:09:31;;;;;;;2.90;2.60;;;11.40;47.50;;;;;;5004097;28;20426;-84
2023/10/26 07:11:57;;;;;;;2.80;2.60;;;11.60;51.60;;;;;;5004320;28;20390;-81
2023/10/26 07:14:22;;;;;;;2.63;2.43;;;11.80;51.80;;;;;;4995099;28;20507;-83
2023/10/26 07:16:48;;;;;;;2.80;2.20;;;11.90;47.40;;;;;;4987573;28;20398;-84
2023/10/26 07:19:14;;;;;;;2.50;2.30;;;11.80;38.40;;;;;;5005202;28;20534;-83
2023/10/26 07:21:39;;;;;;;2.63;2.43;;;11.90;43.00;;;;;;4987245;28;20630;-84
2023/10/26 07:24:05;;;;;;;2.70;2.17;;;11.90;45.50;;;;;;4986029;28;20906;-84
2023/10/26 07:26:32;;;;;;;1.90;1.80;;;12.00;35.20;;;;;;4986876;28;20441;-83
2023/10/26 07:28:58;;;;;;;1.30;0.90;;;12.10;38.50;;;;;;5002951;28;20390;-83
2023/10/26 07:31:23;;;;;;;1.10;0.50;;;12.60;41.80;;;;;;5014892;28;20430;-83
2023/10/26 07:33:49;;;;;;;0.60;0.50;;;12.90;12.90;;;;;;5013293;28;20787;-84
2023/10/26 07:36:15;;;;;;;0.70;0.40;;;13.30;1.00;;;;;;5011904;28;20412;-83
2023/10/26 07:38:41;;;;;;;0.40;0.30;;;13.50;1.00;;;;;;5011576;28;20394;-84
2023/10/26 07:41:08;;;;;;;0.60;0.40;;;13.60;1.00;;;;;;4986569;28;22347;-84
2023/10/26 07:43:34;;;;;;;0.50;0.40;;;13.70;1.00;;;;;;5002344;28;20391;-84
2023/10/26 07:45:59;;;;;;;1.20;0.30;;;13.80;1.00;;;;;;4984297;28;20402;-83
2023/10/26 07:48:25;;;;;;;0.50;0.30;;;13.80;1.00;;;;;;5001777;28;20394;-83
2023/10/26 07:50:53;;;;;;;0.50;0.40;;;13.90;1.00;;;;;;4984842;28;20478;-84
2023/10/26 07:53:19;;;;;;;1.10;0.50;;;14.00;1.00;;;;;;4985605;28;20422;-83
2023/10/26 07:55:44;;;;;;;2.20;0.70;;;14.00;1.00;;;;;;4986537;28;20806;-82
2023/10/26 07:58:10;;;;;;;0.50;0.50;;;14.10;1.00;;;;;;5005459;28;20793;-82
2023/10/26 08:00:38;;;;;;;1.02;0.50;;;14.20;1.00;;;;;;4986846;28;20394;-83
2023/10/26 08:03:04;;;;;;;1.63;0.80;;;14.20;1.00;;;;;;5002301;28;20530;-83
2023/10/26 08:05:30;;;;;;;2.80;0.73;;;14.30;1.00;;;;;;4985453;28;20412;-82
2023/10/26 08:07:56;;;;;;;2.40;0.90;;;14.20;1.00;;;;;;5003293;28;20462;-82
2023/10/26 08:10:23;;;;;;;1.70;1.00;;;14.30;1.00;;;;;;5002969;28;20393;-83
2023/10/26 08:12:52;;;;;;;2.35;1.00;;;14.30;1.00;;;;;;5004918;28;20417;-83
2023/10/26 08:15:17;;;;;;;3.00;0.95;;;14.50;1.00;;;;;;4987308;28;20409;-82
2023/10/26 08:17:43;;;;;;;2.80;1.00;;;14.50;1.00;;;;;;4986130;28;21070;-81
2023/10/26 08:20:09;;;;;;;1.53;0.90;;;14.70;1.00;;;;;;5003324;28;20401;-81
2023/10/26 08:22:35;;;;;;;3.20;0.90;;;14.70;1.00;;;;;;5002396;28;20466;-83
2023/10/26 08:25:04;;;;;;;3.28;1.13;;;14.80;1.00;;;;;;5004442;28;20395;-82
2023/10/26 08:27:30;;;;;;;3.00;1.00;;;14.80;1.00;;;;;;5004779;28;20887;-82
2023/10/26 08:29:55;;;;;;;2.38;1.20;;;14.70;1.00;;;;;;4992113;28;20438;-82
2023/10/26 08:32:21;;;;;;;3.70;1.80;;;14.80;1.00;;;;;;5004102;28;20478;-83
2023/10/26 08:34:47;;;;;;;3.17;1.10;;;14.80;1.00;;;;;;4986480;28;20484;-82
2023/10/26 08:37:13;;;;;;;7.10;1.95;;;14.90;1.00;;;;;;5006442;28;20408;-83
2023/10/26 08:39:39;;;;;;;4.28;1.80;;;15.00;1.00;;;;;;4988531;28;20397;-81
2023/10/26 08:42:05;;;;;;;5.55;1.42;;;15.00;1.00;;;;;;4990231;28;20449;-83
2023/10/26 08:44:31;;;;;;;5.85;1.90;;;15.10;1.00;;;;;;4997323;28;20402;-81
2023/10/26 08:47:03;;;;;;;2.70;1.40;;;15.10;1.00;;;;;;5015696;28;20390;-83
2023/10/26 08:49:30;;;;;;;3.37;1.50;;;15.10;1.00;;;;;;5013064;28;20835;-83
2023/10/26 08:51:56;;;;;;;7.68;1.50;;;15.20;1.00;;;;;;4988064;28;20422;-83
2023/10/26 08:54:22;;;;;;;3.50;1.20;;;15.20;1.00;;;;;;4986194;28;20399;-85
2023/10/26 08:56:47;;;;;;;3.55;1.52;;;15.20;1.00;;;;;;4986360;28;20398;-85
2023/10/26 08:59:14;;;;;;;4.15;1.55;;;15.20;1.00;;;;;;4984669;28;20429;-84
2023/10/26 09:01:39;;;;;;;4.90;1.27;;;15.20;1.00;;;;;;4984941;28;20863;-84
2023/10/26 09:04:08;;;;;;;5.55;1.70;;;15.30;1.00;;;;;;4985377;28;20434;-84
2023/10/26 09:06:52;;;;;;;3.78;1.55;;;15.20;1.00;;;;;;4967473;28;20393;-84
2023/10/26 09:09:17;;;;;;;5.33;1.80;;;15.30;1.00;;;;;;4983743;28;20509;-82
2023/10/26 09:11:46;;;;;;;5.80;1.80;;;15.30;1.00;;;;;;4984878;28;20414;-83
2023/10/26 09:14:20;;;;;;;4.45;1.83;;;15.30;1.00;;;;;;5004672;28;20421;-82
2023/10/26 09:16:47;;;;;;;4.10;1.30;;;15.30;1.00;;;;;;4986667;28;20402;-83
2023/10/26 09:19:14;;;;;;;4.72;2.33;;;15.40;1.00;;;;;;4982889;28;20985;-83
2023/10/26 09:21:56;;;;;;;6.30;2.42;;;15.40;1.00;;;;;;5002450;28;20410;-85
2023/10/26 09:24:29;;;;;;;6.80;1.80;;;15.40;1.00;;;;;;4982061;28;20401;-86
2023/10/26 09:26:56;;;;;;;5.70;2.15;;;15.50;1.00;;;;;;4998584;28;20390;-84
2023/10/26 09:29:36;;;;;;;8.18;2.00;;;15.40;1.00;;;;;;4998341;28;20874;-83
2023/10/26 09:32:02;;;;;;;7.15;2.65;;;15.50;1.00;;;;;;4984907;28;20415;-84
2023/10/26 09:34:28;;;;;;;8.40;2.78;;;15.60;1.00;;;;;;4984909;28;20425;-84
2023/10/26 09:37:04;;;;;;;6.37;2.23;;;15.60;1.00;;;;;;4985811;28;20418;-84
2023/10/26 09:39:32;;;;;;;6.10;1.80;;;15.60;1.00;;;;;;4984323;28;20416;-84
2023/10/26 09:41:59;;;;;;;5.10;1.70;;;15.70;1.00;;;;;;4984575;28;20416;-84
2023/10/26 09:44:25;;;;;;;7.03;2.40;;;15.70;1.00;;;;;;4983387;28;20398;-84
2023/10/26 09:46:50;;;;;;;4.55;1.70;;;15.60;1.00;;;;;;5001105;28;20425;-84
2023/10/26 09:49:16;;;;;;;7.20;2.40;;;15.60;1.00;;;;;;4983722;28;20402;-85
2023/10/26 09:51:43;;;;;;;6.28;2.42;;;15.70;1.00;;;;;;5001523;28;20387;-83
2023/10/26 09:54:09;;;;;;;5.63;1.67;;;15.70;1.00;;;;;;4999184;28;20390;-85
2023/10/26 09:56:36;;;;;;;5.75;1.50;;;15.80;1.00;;;;;;4982570;28;20408;-84
2023/10/26 09:59:03;;;;;;;5.88;1.85;;;15.70;1.00;;;;;;4983874;28;20398;-84
2023/10/26 10:01:33;;;;;;;5.77;1.90;;;15.80;1.00;;;;;;5004107;28;20410;-83
2023/10/26 10:03:59;;;;;;;6.23;2.00;;;15.80;1.00;;;;;;4990213;28;20395;-84
2023/10/26 10:06:44;;;;;;;7.50;2.20;;;15.90;1.00;;;;;;4987308;28;20472;-83
2023/10/26 10:09:10;;;;;;;7.87;2.50;;;15.90;1.00;;;;;;5002383;28;20827;-83
2023/10/26 10:11:36;;;;;;;7.05;2.10;;;15.90;1.00;;;;;;4987958;28;20401;-83
2023/10/26 10:14:02;;;;;;;7.20;2.50;;;15.90;1.00;;;;;;4983539;28;20399;-83
2023/10/26 10:16:33;;;;;;;9.85;2.47;;;15.90;1.00;;;;;;5001193;28;20394;-83
2023/10/26 10:19:20;;;;;;;4.93;2.23;;;16.00;1.00;;;;;;5003822;28;20394;-84
2023/10/26 10:21:51;;;;;;;4.00;1.90;;;16.10;1.00;;;;;;4993766;28;20453;-84
2023/10/26 10:24:37;;;;;;;10.75;2.30;;;16.10;1.00;;;;;;5008099;28;20401;-82
2023/10/26 10:27:13;;;;;;;7.72;2.22;;;16.10;1.00;;;;;;4974829;28;20402;-83
2023/10/26 10:29:42;;;;;;;4.60;1.80;;;16.10;1.00;;;;;;5004535;28;20450;-83
2023/10/26 10:32:10;;;;;;;6.50;2.45;;;16.20;1.00;;;;;;5002356;28;20382;-83
2023/10/26 10:34:45;;;;;;;5.10;2.20;;;16.30;1.00;;;;;;5003740;28;20391;-84
2023/10/26 10:37:13;;;;;;;8.73;1.93;;;16.30;1.00;;;;;;5002297;28;20390;-84
2023/10/26 10:39:59;;;;;;;6.07;2.50;;;16.30;1.00;;;;;;5001384;28;20517;-84
2023/10/26 10:42:25;;;;;;;9.23;2.25;;;16.50;1.00;;;;;;4983564;28;20501;-83
2023/10/26 10:44:52;;;;;;;4.73;1.90;;;16.50;1.00;;;;;;4971782;28;20404;-83
2023/10/26 10:47:17;;;;;;;9.47;2.37;;;16.50;1.00;;;;;;4966191;28;20391;-83
2023/10/26 10:49:43;;;;;;;6.57;1.80;;;16.60;1.00;;;;;;4966613;28;20388;-83
2023/10/26 10:52:15;;;;;;;5.40;1.80;;;16.60;1.00;;;;;;4980002;28;20760;-83
2023/10/26 10:54:49;;;;;;;5.32;1.75;;;16.70;1.00;;;;;;4961074;28;20401;-84
2023/10/26 10:57:14;;;;;;;4.47;1.90;;;16.60;1.00;;;;;;4971433;28;20402;-84
2023/10/26 10:59:40;;;;;;;10.07;2.07;;;16.70;1.00;;;;;;5003847;28;20429;-83
2023/10/26 11:02:06;;;;;;;6.97;2.00;;;16.60;1.00;;;;;;5002957;28;20414;-84
2023/10/26 11:04:32;;;;;;;6.55;2.55;;;16.80;1.00;;;;;;5008920;28;20386;-84
2023/10/26 11:06:58;;;;;;;5.20;1.90;;;17.10;1.00;;;;;;4993303;28;20473;-84
2023/10/26 11:09:26;;;;;;;9.77;2.20;;;17.20;1.00;;;;;;5013476;28;20394;-85
2023/10/26 11:11:52;;;;;;;4.45;2.38;;;17.30;1.00;;;;;;5012699;28;20429;-84
2023/10/26 11:14:19;;;;;;;5.47;1.90;;;17.50;1.00;;;;;;4999987;28;20408;-84
2023/10/26 11:16:46;;;;;;;7.10;1.80;;;17.80;1.00;;;;;;4998002;28;20409;-84
2023/10/26 11:19:12;;;;;;;8.57;2.05;;;18.00;1.00;;;;;;5002631;28;20405;-84
2023/10/26 11:21:39;;;;;;;6.60;2.10;;;17.90;1.00;;;;;;5003462;28;20494;-86
2023/10/26 11:24:05;;;;;;;3.80;1.55;;;17.90;1.00;;;;;;4997320;28;20423;-84
2023/10/26 11:26:30;;;;;;;7.00;2.15;;;18.10;1.00;;;;;;4983681;28;20457;-86
2023/10/26 11:28:56;;;;;;;4.97;2.00;;;18.20;1.00;;;;;;5004273;28;20391;-85
2023/10/26 11:31:41;;;;;;;5.80;2.40;;;18.40;1.00;;;;;;4998818;28;20461;-85
2023/10/26 11:34:08;;;;;;;5.20;2.10;;;18.60;1.00;;;;;;4959235;28;20407;-85
2023/10/26 11:36:37;;;;;;;5.05;2.15;;;18.40;1.00;;;;;;4979083;28;20947;-84
2023/10/26 11:39:04;;;;;;;8.30;1.90;;;18.30;1.00;;;;;;4978648;28;20409;-85
2023/10/26 11:41:30;;;;;;;7.70;2.67;;;18.10;1.00;;;;;;4978447;28;20513;-84
2023/10/26 11:43:57;;;;;;;7.70;2.55;;;17.70;1.00;;;;;;4977956;28;20394;-85
2023/10/26 11:46:34;;;;;;;9.80;2.65;;;17.60;1.00;;;;;;4978056;28;20456;-84
2023/10/26 11:49:01;;;;;;;8.38;2.20;;;17.30;1.00;;;;;;4997507;28;20374;-85
2023/10/26 11:51:28;;;;;;;4.75;2.03;;;17.20;1.00;;;;;;4994569;28;20882;-85
2023/10/26 11:53:54;;;;;;;5.15;2.15;;;17.10;1.00;;;;;;4976784;28;20393;-84
2023/10/26 11:56:19;;;;;;;6.95;1.83;;;17.50;1.00;;;;;;4995072;28;21982;-84
2023/10/26 11:58:45;;;;;;;5.75;2.20;;;17.60;1.00;;;;;;4999332;28;20417;-85
2023/10/26 12:01:10;;;;;;;4.47;1.87;;;17.70;1.00;;;;;;4998012;28;20478;-85
2023/10/26 12:03:42;;;;;;;6.17;1.77;;;17.60;1.00;;;;;;4979524;28;20390;-85
2023/10/26 12:06:10;;;;;;;7.25;1.85;;;17.50;1.00;;;;;;4978608;28;20395;-84
2023/10/26 12:08:35;;;;;;;3.78;1.50;;;17.50;1.00;;;;;;4979591;28;20947;-84
2023/10/26 12:11:01;;;;;;;4.40;1.70;;;17.40;1.00;;;;;;4980861;28;20402;-84
2023/10/26 12:13:26;;;;;;;5.95;1.80;;;17.30;1.00;;;;;;5000584;28;20493;-84
2023/10/26 12:15:52;;;;;;;5.03;1.50;;;17.10;1.00;;;;;;4981366;28;20434;-81
2023/10/26 12:18:17;;;;;;;5.00;1.40;;;17.40;1.00;;;;;;4980331;28;20391;-84
2023/10/26 12:20:43;;;;;;;6.07;1.77;;;16.70;1.00;;;;;;4978504;28;20399;-83
2023/10/26 12:23:08;;;;;;;6.43;1.80;;;17.00;1.00;;;;;;4978110;28;20410;-85
2023/10/26 12:25:34;;;;;;;8.43;2.10;;;16.70;1.00;;;;;;4979489;28;20485;-85
2023/10/26 12:28:00;;;;;;;5.53;1.60;;;16.40;1.00;;;;;;4978035;28;20560;-84
2023/10/26 12:30:26;;;;;;;6.05;1.70;;;16.10;1.00;;;;;;4995706;28;20902;-86
2023/10/26 12:32:51;;;;;;;6.30;2.42;;;15.90;1.00;;;;;;4977322;28;20398;-85
2023/10/26 12:35:17;;;;;;;4.43;1.65;;;15.70;1.00;;;;;;4977129;28;20894;-85
2023/10/26 12:37:43;;;;;;;4.03;2.08;;;15.70;1.00;;;;;;4994703;28;20394;-84
2023/10/26 12:40:08;;;;;;;6.63;2.20;;;15.70;1.00;;;;;;4994583;28;20409;-84
2023/10/26 12:42:37;;;;;;;6.15;1.70;;;15.60;1.00;;;;;;4997435;28;20418;-84
2023/10/26 12:45:03;;;;;;;4.75;1.70;;;15.60;1.00;;;;;;4983102;28;20394;-84
2023/10/26 12:47:28;;;;;;;7.00;2.20;;;15.50;1.00;;;;;;4999327;28;20379;-85
2023/10/26 12:49:54;;;;;;;6.70;2.30;;;15.50;1.00;;;;;;4981066;28;20394;-85
2023/10/26 12:52:19;;;;;;;6.13;1.80;;;15.50;1.00;;;;;;4981016;28;20421;-85